Flight Track Log - Related Links

Times and Time Zones

All times are in EDT time to prevent confusion due to time zone crossing. See the AWI3833 flight status page for this flight to view local times or setup timezone preferences in your user account.

Time Position Orientation Groundspeed Altitude Reporting Facility
EDT Latitude Longitude Course Direction KTS MPH feet Rate Location/Type
Thu 02:44:59 PM 39.8667 -75.2833 308° West 171 197 1,000  Level Philadelphia TRACON
Thu 02:45:53 PM 39.8500 -75.3500 252° West 208 239 2,800 2,526 Climbing Philadelphia TRACON
Thu 02:46:53 PM 39.8333 -75.4167 252° West 209 241 5,800 2,526 Climbing Philadelphia TRACON
Thu 02:47:47 PM 39.8667 -75.4833 303° West 251 289 7,600 2,318 Climbing Philadelphia TRACON
Thu 02:48:00 PM 40.1902 -75.5402 323° Northwest  Level FlightAware Approximate
Thu 02:49:00 PM 40.2655 -75.6232 311° West  Level FlightAware Approximate
Thu 02:49:05 PM 39.9667 -75.5000 353° North 276 318 10,900  Level Philadelphia TRACON
Thu 02:49:53 PM 40.0333 -75.5333 339° North 297 342 12,000 569 Climbing Philadelphia TRACON
Thu 02:50:00 PM 40.3324 -75.7262 308° West  Level FlightAware Approximate
Thu 02:51:01 PM 40.1292 -75.5489 353° North 391 450 12,000  Level New York Center
Thu 02:52:02 PM 40.2325 -75.5750 349° North 396 456 13,300 984 Climbing New York Center
Thu 02:53:03 PM 40.3192 -75.6436 329° Northwest 374 430 14,000 353 Climbing New York Center
Thu 02:54:01 PM 40.4058 -75.7153 328° Northwest 368 423 14,000  Level New York Center
Thu 02:55:02 PM 40.4903 -75.7922 325° Northwest 368 423 14,000  Level New York Center
Thu 02:56:03 PM 40.5708 -75.8583 328° Northwest 373 429 14,000  Level New York Center
Thu 02:57:00 PM 40.6694 -75.9394 328° Northwest 373 429 14,000  Level New York Center
Thu 02:58:02 PM 40.7456 -76.0083 326° Northwest 379 436 14,000  Level New York Center
Thu 02:59:03 PM 40.8419 -76.0897 327° Northwest 379 436 14,000  Level New York Center
Thu 03:00:03 PM 40.9281 -76.1650 327° Northwest 379 436 14,000  Level New York Center
Thu 03:01:00 PM 41.0211 -76.2275 333° Northwest 379 436 14,000  Level New York Center
Thu 03:02:01 PM 41.1175 -76.2158 North 370 426 14,000  Level New York Center
Thu 03:03:02 PM 41.2239 -76.2108 North 377 434 14,000  Level New York Center
Thu 03:04:03 PM 41.3411 -76.2008 North 382 440 14,000 50 Level New York Center
Thu 03:05:01 PM 41.4475 -76.1928 North 388 447 14,100 51 Climbing New York Center
Thu 03:06:01 PM 41.5542 -76.1850 North 388 447 14,100 -50 Level New York Center
Thu 03:07:02 PM 41.6503 -76.1786 North 388 447 14,000 -49 Descending New York Center
Thu 03:08:03 PM 41.7569 -76.1708 North 388 447 14,000  Level New York Center
Thu 03:09:01 PM 41.8717 -76.1633 North 388 447 14,000 -303 Level New York Center
Thu 03:10:02 PM 41.9783 -76.1553 North 388 447 13,400 -787 Descending New York Center
Thu 03:11:03 PM 42.0892 -76.1447 North 394 453 12,400 -1,059 Descending New York Center
Thu 03:12:01 PM 42.1936 -76.1364 North 383 441 11,300 -712 Descending New York Center
Thu 03:13:01 PM 42.2961 -76.1225 North 383 441 11,000 -143 Descending New York Center
Thu 03:14:07 PM 42.4097 -76.1100 North 371 427 11,000  Level Boston Center
Thu 03:15:08 PM 42.5186 -76.0969 North 372 428 11,000 -49 Level Boston Center
Thu 03:16:09 PM 42.6211 -76.0858 North 367 422 10,900 -590 Descending Boston Center
Thu 03:17:10 PM 42.7025 -76.0878 359° North 278 320 9,800 -1,328 Descending Boston Center
Thu 03:18:11 PM 42.7769 -76.1092 348° North 263 303 8,200 -1,686 Descending Boston Center
Thu 03:19:11 PM 42.8469 -76.0708 22° Northeast 277 319 6,400 -1,736 Descending Boston Center
Thu 03:20:12 PM 42.9150 -76.0239 27° Northeast 276 318 4,700 -1,426 Descending Boston Center
Thu 03:21:13 PM 42.9853 -75.9769 26° Northeast 262 302 3,500 -1,180 Descending Boston Center

Login

Don't have an account? Register now (free) for customized features, flight alerts, and more!